Aérodrome :
LOGIN :

S'inscrire | Disclaimer

   EN    FR    IT 

 










Légende :    VFR   VFR Marginal   IFR   IFR Intensif   IFR Très Intensif
Visi : 
Plafond : 
>= 8 km
>= 3000ft
5 à 8 km
1000 à 3000 ft
1500m à 5 km
500 à 1000 ft
800 à 1500m
200 à 500 ft
< 800m
< 200 ft
Symboles :   Orages  Brouillard  Fortes neiges  Fortes précipitations  Vent > 20 kt
SIGMETs :   Divers  Orages  Givrage  Turbulence  Onde Orograph.  Cendres Volcan.






- Altitude de l'aérodrome : 3 ft
- Code IATA : DHR


EHKD - Den Helder De Kooy

DERNIER METAR :
  • 280655Z AUTO 24006KT 9999 FEW027 OVC031 07/06 Q1018 BLU TEMPO SCT005 BKN010

METARs EXPIRÉS :
  • 280628Z AUTO 25007KT 9999 FEW019 SCT025 OVC029 07/06 Q1018 BLU TEMPO SCT005 BKN010
  • 280625Z AUTO 25007KT 9999 FEW009 SCT019 BKN026 07/06 Q1018 WHT TEMPO SCT005 BKN010
  • 280603Z AUTO 24006KT 210V270 9999 BKN013 BKN015 OVC018 07/06 Q1018 GRN TEMPO SCT005 BKN010
  • 280539Z AUTO 24006KT 9000 BR BKN013 OVC018 07/06 Q1018 GRN TEMPO 4000 BR SCT005
  • 280535Z AUTO 24006KT 9000 BR SCT013 OVC019 07/06 Q1018 GRN TEMPO 4000 BR SCT005
  • 280455Z AUTO 24006KT 9999 SCT015 BKN018 OVC021 07/06 Q1018 WHT
  • 280425Z AUTO 24008KT 9999 FEW008 BKN012 OVC014 07/06 Q1018 GRN
  • 280416Z AUTO 23008KT 9000 BR FEW008 OVC010 07/06 Q1018 GRN
  • 280355Z AUTO 23008KT 5000 DZ SCT002 BKN004 OVC008 07/06 Q1018 AMB
  • 280325Z AUTO 24008KT 210V270 3000 BR SCT003 BKN004 OVC006 07/06 Q1018 YLO
  • 280306Z AUTO 24009KT 2500 BR FEW004 BKN006 BKN007 07/06 Q1018 YLO
  • 280255Z AUTO 24009KT 4400 BR BKN006 BKN007 07/06 Q1018 YLO
  • 280238Z AUTO 23009KT 200V260 9000 BR BKN006 OVC007 07/06 Q1018 YLO
  • 280225Z AUTO 23009KT 7000 BR FEW005 BKN008 BKN010 07/06 Q1018 GRN
  • 280202Z AUTO 23009KT 200V260 8000 -RA BKN006 BKN007 06/05 Q1018 YLO

TAF TAF EHKD
Valide du 28 à 06h jusqu'au 28 à 18h UTC


280519Z 2806/2818 23004KT 8000 SCT015 BKN020
TEMPO 2806/2810 4000 BR FEW003 SCT006 BKN012
BECMG 2810/2812 21012KT
TEMPO 2810/2818 FEW005 SCT008 BKN012
PROB40
TEMPO 2813/2818 SCT003 BKN005



MET'MAP, la Météo Aéronautique d'un coup d'oeil ! - Copyright ORBIFLY Décembre 2007 - Disclaimer

ORBIFLY MET'MAP TEAM :

Programmation & Développement : Alexandra Zaïnal
Sur une idée originale de : Baudouin d'Aumeries
Soutien technique & logistique : Manuel Goepfert
Assistance : Marc-Olivier Méhu




SOURCES & CREDITS :

   NOAA